Time;durP1;ratioP1;P1;durP2;ratioP2;P2;SDS_P1;SDS_P2;PMS_P1;PMS_P2;Temp;Humidity;BMP_temperature;BMP_pressure;BME280_temperature;BME280_humidity;BME280_pressure;Samples;Min_cycle;Max_cycle;Signal;HPM_P1;HPM_P2
2021/05/24 04:17:00;;;;;;;4.87;2.47;;;;;;;5.88;89.85;98632.84;5149910;23;20060;-76
2021/05/24 04:19:25;;;;;;;5.20;2.47;;;;;;;6.00;89.28;98631.16;4895210;29;20044;-73
2021/05/24 04:21:51;;;;;;;3.53;2.75;;;;;;;5.98;88.48;98628.56;4897109;29;20024;-72
2021/05/24 04:24:16;;;;;;;3.97;1.98;;;;;;;5.95;88.85;98625.16;4895634;29;20024;-72
2021/05/24 04:26:42;;;;;;;2.42;2.15;;;;;;;6.12;88.72;98636.25;4880030;29;20035;-72
2021/05/24 04:29:07;;;;;;;6.32;1.90;;;;;;;6.24;88.20;98631.09;4879740;29;20868;-73
2021/05/24 04:31:34;;;;;;;5.88;3.33;;;;;;;6.29;87.82;98629.38;4894118;29;20035;-73
2021/05/24 04:33:59;;;;;;;2.80;2.00;;;;;;;6.43;87.37;98637.91;4896213;29;20034;-73
2021/05/24 04:36:24;;;;;;;5.43;2.30;;;;;;;6.25;86.73;98632.81;4895794;29;20401;-74
2021/05/24 04:38:49;;;;;;;3.35;2.28;;;;;;;6.16;87.07;98622.53;4896307;29;20552;-73
2021/05/24 04:41:15;;;;;;;8.70;2.60;;;;;;;6.23;87.01;98629.34;4896312;29;20040;-71
2021/05/24 04:43:41;;;;;;;3.75;1.80;;;;;;;6.20;87.21;98634.53;4896107;29;20035;-71
2021/05/24 04:46:07;;;;;;;2.58;1.98;;;;;;;6.16;87.01;98622.53;4896092;29;20036;-71
2021/05/24 04:48:34;;;;;;;2.58;2.38;;;;;;;6.17;87.46;98614.81;4895954;29;20581;-76
2021/05/24 04:51:03;;;;;;;2.75;1.90;;;;;;;6.23;87.37;98613.94;4896253;29;20163;-76
2021/05/24 04:53:30;;;;;;;7.95;2.55;;;;;;;6.29;87.26;98603.63;4895903;29;20079;-76
2021/05/24 04:55:56;;;;;;;3.15;2.22;;;;;;;6.32;87.52;98613.91;4896075;29;20053;-71
2021/05/24 04:58:21;;;;;;;2.72;2.10;;;;;;;6.35;87.58;98619.03;4895992;29;20028;-71
2021/05/24 05:00:47;;;;;;;4.68;2.30;;;;;;;6.30;87.85;98607.91;4890890;29;20091;-71
2021/05/24 05:03:12;;;;;;;2.17;1.98;;;;;;;6.39;87.71;98614.75;4896124;29;20121;-71
2021/05/24 05:05:37;;;;;;;7.70;2.40;;;;;;;6.38;87.68;98608.75;4895663;29;20028;-71
2021/05/24 05:08:03;;;;;;;5.57;2.38;;;;;;;6.47;87.43;98599.25;4895899;29;20061;-72
2021/05/24 05:10:28;;;;;;;3.38;2.22;;;;;;;6.64;86.52;98600.03;4895840;29;20092;-72
2021/05/24 05:12:53;;;;;;;6.47;2.42;;;;;;;6.59;86.91;98617.22;4895823;29;20024;-72
2021/05/24 05:15:19;;;;;;;2.22;1.67;;;;;;;6.83;86.44;98609.38;4878891;29;20032;-73
2021/05/24 05:17:44;;;;;;;1.80;1.70;;;;;;;6.95;86.02;98611.88;4895671;29;20035;-73
2021/05/24 05:20:11;;;;;;;2.90;2.03;;;;;;;7.34;84.93;98607.31;4895928;29;20033;-76
2021/05/24 05:22:36;;;;;;;2.97;1.90;;;;;;;7.47;83.51;98608.91;4895668;29;20386;-76
2021/05/24 05:25:02;;;;;;;3.30;2.20;;;;;;;7.40;83.08;98601.28;4895848;29;20035;-71
2021/05/24 05:27:28;;;;;;;4.82;1.90;;;;;;;7.54;82.25;98595.97;4895610;29;20493;-72
2021/05/24 05:29:53;;;;;;;2.17;1.73;;;;;;;7.41;82.90;98606.41;4895646;29;20077;-72
2021/05/24 05:32:18;;;;;;;4.65;2.10;;;;;;;7.61;82.14;98595.06;4898717;29;20368;-72
2021/05/24 05:34:44;;;;;;;2.22;2.05;;;;;;;7.48;82.95;98590.00;4898927;29;20024;-76
2021/05/24 05:37:09;;;;;;;4.63;1.98;;;;;;;7.62;81.82;98595.03;4898947;29;20064;-76
2021/05/24 05:39:35;;;;;;;34.45;20.45;;;;;;;7.73;82.10;98597.50;4898959;29;20035;-76
2021/05/24 05:42:00;;;;;;;4.93;2.70;;;;;;;7.70;81.76;98587.25;4898998;29;20032;-72
2021/05/24 05:44:26;;;;;;;6.45;2.30;;;;;;;7.72;82.01;98591.50;4898909;29;20029;-71
2021/05/24 05:46:51;;;;;;;3.38;2.40;;;;;;;7.88;81.26;98594.81;4898767;29;20104;-73
2021/05/24 05:49:16;;;;;;;7.25;2.25;;;;;;;7.95;80.81;98588.69;4898806;29;20363;-72
2021/05/24 05:51:42;;;;;;;2.85;2.30;;;;;;;7.96;80.25;98589.53;4898646;29;20025;-71
2021/05/24 05:54:07;;;;;;;3.28;2.30;;;;;;;7.90;80.52;98585.31;4898860;29;20390;-71
2021/05/24 05:56:32;;;;;;;4.97;1.95;;;;;;;7.71;81.03;98581.22;4898367;29;20111;-76
2021/05/24 05:58:58;;;;;;;4.30;2.15;;;;;;;7.87;81.36;98569.84;4898676;29;20036;-71
2021/05/24 06:01:23;;;;;;;3.17;2.20;;;;;;;8.14;80.48;98580.75;4898676;29;20031;-76
2021/05/24 06:03:48;;;;;;;5.07;2.92;;;;;;;8.16;79.66;98571.25;4898476;29;20021;-76
2021/05/24 06:06:14;;;;;;;7.07;2.33;;;;;;;8.26;79.71;98567.69;4898198;29;20104;-76
2021/05/24 06:08:40;;;;;;;2.78;2.22;;;;;;;8.35;78.80;98567.59;4898530;29;20084;-73
2021/05/24 06:11:06;;;;;;;4.68;2.45;;;;;;;8.05;79.33;98563.66;4898482;29;20100;-71
2021/05/24 06:13:31;;;;;;;4.50;2.20;;;;;;;7.95;80.66;98562.91;4881519;29;20131;-71
2021/05/24 06:15:57;;;;;;;2.83;1.90;;;;;;;8.19;79.90;98558.34;4898036;29;20037;-73
2021/05/24 06:18:22;;;;;;;3.10;2.08;;;;;;;8.48;78.56;98561.44;4898188;29;20103;-73
2021/05/24 06:20:48;;;;;;;2.75;2.25;;;;;;;8.04;80.59;98561.09;4898341;29;20111;-76
2021/05/24 06:23:14;;;;;;;3.72;1.92;;;;;;;8.16;80.46;98563.53;4898241;29;20031;-76
2021/05/24 06:25:41;;;;;;;2.65;2.13;;;;;;;8.33;79.73;98564.19;4898039;29;20514;-76
2021/05/24 06:28:07;;;;;;;4.70;2.15;;;;;;;8.78;78.39;98556.72;4898057;29;20424;-73
2021/05/24 06:30:32;;;;;;;4.07;2.00;;;;;;;8.96;77.35;98560.78;4898014;29;20028;-74
2021/05/24 06:32:58;;;;;;;3.47;2.10;;;;;;;9.09;76.15;98556.25;4898110;29;20024;-72
2021/05/24 06:35:23;;;;;;;7.88;2.28;;;;;;;9.50;75.59;98548.69;4893520;29;20367;-72
2021/05/24 06:37:48;;;;;;;2.75;2.03;;;;;;;9.95;74.27;98551.28;4897942;29;20060;-73
2021/05/24 06:40:14;;;;;;;2.28;1.73;;;;;;;10.05;72.93;98558.00;4897720;29;20028;-76
2021/05/24 06:42:39;;;;;;;5.15;2.33;;;;;;;10.40;72.26;98553.06;4897206;29;20032;-76
2021/05/24 06:45:06;;;;;;;6.20;1.90;;;;;;;10.31;72.43;98551.50;4897731;29;20076;-72
2021/05/24 06:47:31;;;;;;;1.80;1.70;;;;;;;10.67;71.71;98554.19;4897672;29;20115;-76
2021/05/24 06:49:57;;;;;;;3.88;2.17;;;;;;;10.57;71.70;98544.91;4897682;29;20449;-76
2021/05/24 06:52:22;;;;;;;5.40;2.78;;;;;;;10.95;70.30;98552.69;4897739;29;20020;-72
2021/05/24 06:54:47;;;;;;;5.75;2.00;;;;;;;11.06;69.24;98552.41;4897689;29;20546;-71
2021/05/24 06:57:13;;;;;;;2.67;1.90;;;;;;;10.91;70.42;98547.59;4880225;29;20059;-72
2021/05/24 06:59:38;;;;;;;3.08;1.85;;;;;;;10.96;70.81;98553.53;4897446;29;20106;-76
2021/05/24 07:02:05;;;;;;;2.08;1.65;;;;;;;11.00;69.82;98552.56;4897456;29;20020;-72
2021/05/24 07:04:30;;;;;;;4.85;2.00;;;;;;;11.16;69.82;98555.66;4897427;29;20538;-77
2021/05/24 07:06:55;;;;;;;12.50;8.80;;;;;;;11.65;69.25;98549.22;4897069;29;20139;-76
2021/05/24 07:09:21;;;;;;;5.00;2.78;;;;;;;11.73;67.15;98552.47;4897278;29;20028;-76
2021/05/24 07:11:47;;;;;;;6.55;3.22;;;;;;;11.94;67.54;98544.19;4897416;29;20140;-73
2021/05/24 07:14:12;;;;;;;6.40;2.75;;;;;;;12.48;65.63;98543.50;4897251;29;20474;-73
2021/05/24 07:16:38;;;;;;;4.10;2.63;;;;;;;12.85;64.29;98538.00;4896903;29;20036;-73
2021/05/24 07:19:04;;;;;;;4.85;3.15;;;;;;;13.37;62.59;98530.34;4897245;29;20032;-73
2021/05/24 07:21:29;;;;;;;4.20;2.40;;;;;;;13.93;61.89;98524.94;4897036;29;20028;-72
2021/05/24 07:23:55;;;;;;;4.93;2.20;;;;;;;14.19;59.07;98520.53;4897044;29;20458;-72
2021/05/24 07:26:21;;;;;;;3.47;1.90;;;;;;;14.20;60.05;98527.44;4896677;29;20509;-73
2021/05/24 07:28:46;;;;;;;74.50;40.88;;;;;;;14.63;59.29;98522.34;4897064;29;20084;-72
2021/05/24 07:31:11;;;;;;;5.07;2.63;;;;;;;13.91;60.05;98537.16;4896909;29;20021;-73
2021/05/24 07:33:37;;;;;;;4.18;2.10;;;;;;;13.36;62.61;98534.69;4897028;29;20076;-73
2021/05/24 07:36:03;;;;;;;3.08;1.85;;;;;;;13.33;63.66;98536.53;4826984;29;20517;-73
2021/05/24 07:38:28;;;;;;;4.10;2.00;;;;;;;13.56;63.17;98541.84;4915598;29;20107;-76
2021/05/24 07:40:53;;;;;;;5.90;1.77;;;;;;;13.58;64.00;98540.00;4911754;29;20470;-77
2021/05/24 07:43:19;;;;;;;2.15;1.55;;;;;;;13.79;61.57;98532.38;4915581;29;20710;-76
2021/05/24 07:45:44;;;;;;;5.43;2.00;;;;;;;13.95;60.87;98530.94;4915494;29;20042;-76
2021/05/24 07:48:10;;;;;;;2.85;1.77;;;;;;;14.59;60.79;98523.38;4915504;29;20059;-72
2021/05/24 07:50:35;;;;;;;4.18;1.98;;;;;;;14.96;58.45;98519.34;4915800;29;20465;-72
2021/05/24 07:53:01;;;;;;;2.85;1.73;;;;;;;15.01;57.56;98522.59;4911327;29;20071;-72
2021/05/24 07:55:26;;;;;;;3.67;2.10;;;;;;;15.85;55.69;98515.66;4914511;29;20440;-77
2021/05/24 07:57:51;;;;;;;7.80;2.28;;;;;;;16.31;54.16;98518.84;4915213;29;20035;-76
2021/05/24 08:00:18;;;;;;;4.57;2.17;;;;;;;16.84;51.42;98513.75;4910563;29;20029;-77
2021/05/24 08:02:44;;;;;;;1.63;1.42;;;;;;;17.43;49.15;98511.75;4915451;29;20047;-77
2021/05/24 08:05:12;;;;;;;3.00;1.20;;;;;;;16.39;51.20;98517.59;4915204;29;20028;-78
2021/05/24 08:07:38;;;;;;;1.50;1.05;;;;;;;16.75;50.29;98510.75;4915157;29;20048;-76
2021/05/24 08:10:05;;;;;;;2.55;1.30;;;;;;;17.34;49.63;98502.59;4915372;29;20032;-77
2021/05/24 08:12:33;;;;;;;2.05;0.90;;;;;;;16.43;49.95;98503.41;4915081;29;20043;-76
2021/05/24 08:14:59;;;;;;;1.20;0.90;;;;;;;17.61;47.22;98504.75;4898120;29;20393;-76
2021/05/24 08:17:24;;;;;;;0.93;0.60;;;;;;;17.78;45.32;98498.66;4912119;29;20043;-77
2021/05/24 08:19:49;;;;;;;1.05;0.70;;;;;;;16.05;49.66;98505.19;4896543;29;20024;-76
2021/05/24 08:22:15;;;;;;;0.80;0.80;;;;;;;15.77;51.98;98499.47;4915304;29;20066;-77
2021/05/24 08:24:40;;;;;;;2.80;1.33;;;;;;;16.83;50.19;98491.13;4915049;29;20445;-77
2021/05/24 08:27:05;;;;;;;3.47;0.90;;;;;;;16.64;51.63;98491.13;4914880;29;20024;-77
2021/05/24 08:29:31;;;;;;;1.63;1.13;;;;;;;16.25;51.92;98477.31;4910334;29;20039;-77
2021/05/24 08:31:56;;;;;;;3.75;1.40;;;;;;;16.27;52.91;98485.91;4910683;29;20046;-77
2021/05/24 08:34:22;;;;;;;5.28;1.40;;;;;;;15.77;54.46;98475.97;4912802;29;20020;-76
2021/05/24 08:36:48;;;;;;;3.53;1.25;;;;;;;15.34;55.92;98473.41;4914632;29;20107;-77
2021/05/24 08:39:13;;;;;;;2.45;1.48;;;;;;;15.82;55.47;98460.94;4915126;29;20517;-77
2021/05/24 08:41:39;;;;;;;3.17;1.40;;;;;;;16.02;55.99;98460.88;4914857;29;20031;-76
2021/05/24 08:44:06;;;;;;;1.92;1.08;;;;;;;16.65;53.06;98450.97;4915037;29;20028;-76
2021/05/24 08:46:32;;;;;;;3.55;1.42;;;;;;;16.04;54.25;98443.34;4914587;29;20111;-77
2021/05/24 08:48:58;;;;;;;2.95;1.08;;;;;;;15.96;54.05;98445.50;4914960;29;20469;-77
2021/05/24 08:51:23;;;;;;;2.10;1.25;;;;;;;15.76;56.02;98438.56;4914890;29;20027;-77
2021/05/24 08:53:49;;;;;;;1.33;1.05;;;;;;;16.17;55.28;98427.97;4915084;29;20533;-77
2021/05/24 08:56:15;;;;;;;2.53;1.20;;;;;;;16.64;53.30;98433.59;4914680;29;20059;-77
2021/05/24 08:58:41;;;;;;;2.03;1.40;;;;;;;16.52;53.36;98434.16;4908983;29;20075;-77
2021/05/24 09:01:06;;;;;;;5.30;1.40;;;;;;;17.57;50.96;98428.06;4912908;29;20501;-72
2021/05/24 09:03:34;;;;;;;2.15;1.10;;;;;;;18.58;47.51;98419.19;4912373;29;20023;-74
2021/05/24 09:06:02;;;;;;;2.88;1.10;;;;;;;19.23;46.49;98422.44;4914863;29;20031;-77
2021/05/24 09:08:58;;;;;;;1.58;1.10;;;;;;;20.11;45.16;98420.63;4912747;29;20024;-73
2021/05/24 09:11:29;;;;;;;1.02;0.93;;;;;;;21.12;43.75;98420.22;4912711;29;20060;-73
2021/05/24 09:13:55;;;;;;;29.92;18.80;;;;;;;21.64;42.03;98422.00;4906312;29;20103;-72
2021/05/24 09:16:36;;;;;;;3.20;1.33;;;;;;;21.39;43.09;98409.66;4899967;29;20119;-72
2021/05/24 09:19:19;;;;;;;1.27;0.90;;;;;;;20.71;42.21;98415.06;4911775;29;20024;-72
2021/05/24 09:21:59;;;;;;;3.22;1.00;;;;;;;20.42;42.58;98404.59;4915224;29;20419;-73
2021/05/24 09:24:51;;;;;;;0.68;0.65;;;;;;;18.38;48.65;98408.03;4913408;29;20125;-73
2021/05/24 09:27:28;;;;;;;3.63;0.80;;;;;;;19.14;46.30;98405.41;4911283;29;20028;-73
2021/05/24 09:29:57;;;;;;;1.20;0.93;;;;;;;20.72;44.28;98396.53;4915207;29;20035;-77
2021/05/24 09:32:25;;;;;;;2.95;0.77;;;;;;;20.26;43.84;98407.38;4913483;29;20028;-77
2021/05/24 09:34:51;;;;;;;3.20;0.75;;;;;;;20.88;42.13;98406.06;4917743;29;20696;-77
2021/05/24 09:37:20;;;;;;;1.20;0.70;;;;;;;21.22;37.33;98396.75;4917463;29;20107;-77
2021/05/24 09:39:46;;;;;;;0.63;0.63;;;;;;;20.66;38.51;98404.84;4914046;29;20031;-77
2021/05/24 09:42:15;;;;;;;1.23;0.70;;;;;;;19.65;42.02;98408.53;4916431;29;20028;-77
2021/05/24 09:44:53;;;;;;;1.00;0.80;;;;;;;19.94;40.85;98400.66;4911506;29;20025;-77
2021/05/24 09:47:36;;;;;;;1.33;0.88;;;;;;;19.69;40.80;98399.53;4912537;29;20036;-77
2021/05/24 09:50:20;;;;;;;2.83;0.70;;;;;;;19.92;41.88;98386.72;4917147;29;20469;-77
2021/05/24 09:52:47;;;;;;;0.93;0.80;;;;;;;20.26;40.50;98383.69;4916992;29;20033;-77
2021/05/24 09:55:21;;;;;;;0.75;0.73;;;;;;;20.33;40.07;98388.56;4914118;29;20024;-77
2021/05/24 09:57:58;;;;;;;3.65;0.80;;;;;;;19.66;41.54;98389.19;4917334;29;20620;-77
2021/05/24 10:00:38;;;;;;;1.95;1.70;;;;;;;19.54;42.62;98389.09;4915270;29;20414;-77
2021/05/24 10:03:05;;;;;;;2.33;1.42;;;;;;;19.74;41.80;98389.59;4898153;29;20027;-77
2021/05/24 10:05:42;;;;;;;8.30;1.08;;;;;;;20.71;41.79;98384.31;4916988;29;20530;-77
2021/05/24 10:08:08;;;;;;;1.38;0.68;;;;;;;20.93;39.83;98381.09;4915969;29;20020;-77
2021/05/24 10:10:34;;;;;;;1.35;0.80;;;;;;;20.49;40.35;98379.59;4916917;29;20026;-77
2021/05/24 10:13:00;;;;;;;3.63;0.80;;;;;;;21.94;37.34;98370.69;4916896;29;20028;-77
2021/05/24 10:15:26;;;;;;;3.08;0.90;;;;;;;21.80;37.67;98369.88;4916852;29;20048;-77
2021/05/24 10:17:58;;;;;;;0.85;0.73;;;;;;;21.64;38.97;98357.88;4915621;29;20055;-77
2021/05/24 10:20:24;;;;;;;0.68;0.68;;;;;;;22.57;37.12;98359.09;4915362;29;20027;-77
2021/05/24 10:22:50;;;;;;;0.70;0.70;;;;;;;21.42;38.15;98347.97;4916854;29;20027;-77
2021/05/24 10:25:16;;;;;;;0.98;0.88;;;;;;;20.86;39.66;98355.28;4915672;29;20050;-77
2021/05/24 10:27:42;;;;;;;1.55;1.30;;;;;;;20.91;40.31;98345.28;4916521;29;20036;-77
2021/05/24 10:30:10;;;;;;;3.92;0.90;;;;;;;20.26;39.59;98346.00;4906981;29;20028;-76
2021/05/24 10:32:35;;;;;;;1.00;0.60;;;;;;;20.41;39.53;98344.19;4893587;29;20080;-73
2021/05/24 10:35:09;;;;;;;4.18;3.28;;;;;;;21.19;39.67;98334.56;4916528;29;20028;-73
2021/05/24 10:37:40;;;;;;;1.58;0.73;;;;;;;20.54;38.94;98334.53;4895356;29;20159;-73
2021/05/24 10:40:07;;;;;;;2.15;0.90;;;;;;;21.10;38.08;98327.28;4909456;29;20110;-73
2021/05/24 10:42:37;;;;;;;0.65;0.65;;;;;;;21.30;38.90;98329.41;4916579;29;20023;-73
2021/05/24 10:45:21;;;;;;;1.20;0.60;;;;;;;20.82;38.33;98323.03;4909441;29;20489;-73
2021/05/24 10:47:54;;;;;;;1.85;0.90;;;;;;;19.61;40.89;98336.06;4909045;29;20028;-72
2021/05/24 10:50:21;;;;;;;1.23;0.80;;;;;;;19.53;39.41;98325.13;4916149;29;20498;-72
2021/05/24 10:52:57;;;;;;;1.08;0.70;;;;;;;19.83;42.39;98332.13;4892562;29;20055;-72
2021/05/24 10:55:25;;;;;;;0.55;0.55;;;;;;;20.24;40.71;98325.03;4912089;29;20047;-79
2021/05/24 10:57:58;;;;;;;0.80;0.80;;;;;;;19.93;41.27;98318.28;4912909;29;20095;-78
2021/05/24 11:00:24;;;;;;;1.35;0.73;;;;;;;19.74;42.52;98323.00;4916050;29;20122;-77
2021/05/24 11:02:54;;;;;;;1.00;0.60;;;;;;;19.46;43.16;98313.34;4916214;29;20103;-77
2021/05/24 11:05:29;;;;;;;4.00;1.17;;;;;;;19.05;43.58;98321.97;4915795;29;20028;-75
2021/05/24 11:07:57;;;;;;;1.00;0.70;;;;;;;19.31;44.02;98306.41;4909489;29;20021;-72
2021/05/24 11:10:25;;;;;;;1.00;0.85;;;;;;;19.10;44.20;98316.41;4915993;29;20656;-73
2021/05/24 11:13:19;;;;;;;1.58;1.02;;;;;;;19.11;44.07;98297.94;4915937;29;20100;-72
2021/05/24 11:15:45;;;;;;;3.60;1.35;;;;;;;19.04;43.07;98309.72;4902676;29;20043;-72
2021/05/24 11:18:11;;;;;;;0.93;0.77;;;;;;;18.83;42.76;98313.66;4915717;29;20024;-73
2021/05/24 11:20:49;;;;;;;1.42;0.80;;;;;;;19.15;42.67;98315.22;4915892;29;20039;-74
2021/05/24 11:26:06;;;;;;;2.10;0.90;;;;;;;18.90;44.44;98312.34;4915702;29;20072;-74
2021/05/24 11:28:37;;;;;;;2.28;1.08;;;;;;;19.14;43.56;98303.00;4913757;29;20020;-74
2021/05/24 11:31:19;;;;;;;2.75;0.93;;;;;;;19.42;42.11;98301.31;4915724;29;20035;-75
2021/05/24 11:33:53;;;;;;;1.95;0.90;;;;;;;18.99;43.41;98304.75;4912032;29;20453;-75
2021/05/24 11:36:40;;;;;;;1.95;0.90;;;;;;;19.15;42.71;98299.44;4915290;29;20363;-74
2021/05/24 11:39:19;;;;;;;2.80;1.13;;;;;;;19.73;43.39;98295.88;4914915;29;20027;-73
2021/05/24 11:41:53;;;;;;;0.63;0.60;;;;;;;19.51;42.59;98284.97;4915122;29;20132;-73
2021/05/24 11:44:22;;;;;;;1.83;1.00;;;;;;;19.75;42.68;98288.72;4915378;29;20031;-73
2021/05/24 11:46:52;;;;;;;1.02;0.90;;;;;;;19.53;42.91;98283.09;4914846;29;20020;-73
2021/05/24 11:49:29;;;;;;;1.25;0.80;;;;;;;19.98;41.15;98278.53;4915364;29;20584;-74
2021/05/24 11:51:55;;;;;;;1.83;1.05;;;;;;;20.56;41.35;98271.28;4915150;29;20111;-74
2021/05/24 11:54:20;;;;;;;0.88;0.70;;;;;;;20.79;39.78;98266.16;4910775;29;20028;-75
2021/05/24 11:56:52;;;;;;;1.00;0.73;;;;;;;21.22;38.33;98257.06;4915061;29;20585;-71
2021/05/24 11:59:19;;;;;;;1.58;0.90;;;;;;;21.81;39.72;98250.25;4915120;29;20082;-71
2021/05/24 12:01:47;;;;;;;3.85;1.45;;;;;;;21.14;38.70;98241.81;4914432;29;20024;-71
2021/05/24 12:04:20;;;;;;;4.78;1.30;;;;;;;21.39;38.52;98240.13;4915208;29;20024;-71
2021/05/24 12:07:14;;;;;;;0.85;0.80;;;;;;;20.94;40.32;98242.38;4910380;29;20028;-71
2021/05/24 12:09:44;;;;;;;3.38;0.88;;;;;;;20.85;38.01;98230.66;4915064;29;20032;-74
2021/05/24 12:12:11;;;;;;;0.70;0.70;;;;;;;20.75;39.55;98243.63;4914472;29;20031;-71
2021/05/24 12:14:38;;;;;;;0.73;0.70;;;;;;;20.80;39.73;98240.66;4914233;29;20025;-70
2021/05/24 12:17:10;;;;;;;1.13;0.65;;;;;;;20.76;38.89;98240.03;4914771;29;20024;-71
2021/05/24 12:19:35;;;;;;;0.75;0.52;;;;;;;21.56;37.20;98234.47;4914833;29;20030;-72
2021/05/24 12:22:06;;;;;;;1.95;0.70;;;;;;;21.17;37.39;98222.31;4914806;29;20027;-71
2021/05/24 12:24:40;;;;;;;0.85;0.57;;;;;;;20.70;37.09;98219.38;4914884;29;20028;-71
2021/05/24 12:27:07;;;;;;;1.23;0.73;;;;;;;20.58;36.42;98225.47;4909673;29;20437;-71
2021/05/24 12:29:35;;;;;;;2.60;0.75;;;;;;;20.57;37.42;98223.78;4910378;29;20486;-71
2021/05/24 12:32:06;;;;;;;0.70;0.70;;;;;;;20.09;35.64;98223.44;4914870;29;20032;-71
2021/05/24 12:34:47;;;;;;;3.35;0.85;;;;;;;20.21;36.40;98206.88;4914815;29;20039;-71
2021/05/24 12:37:15;;;;;;;2.35;0.82;;;;;;;20.49;37.48;98205.03;4914651;29;20028;-71
2021/05/24 12:39:46;;;;;;;0.98;0.93;;;;;;;20.89;38.64;98202.34;4914565;29;20016;-75
2021/05/24 12:42:12;;;;;;;2.63;0.70;;;;;;;20.63;35.68;98202.31;4917797;29;20034;-75
2021/05/24 12:44:39;;;;;;;1.55;0.85;;;;;;;20.79;35.22;98197.69;4918628;29;20028;-75
2021/05/24 12:47:22;;;;;;;1.40;0.65;;;;;;;19.81;38.24;98208.63;4918658;29;20020;-75
2021/05/24 12:49:48;;;;;;;0.85;0.68;;;;;;;19.85;40.35;98199.59;4918704;29;20024;-73
2021/05/24 12:52:17;;;;;;;1.92;0.88;;;;;;;19.39;41.42;98193.78;4916150;29;20177;-73
2021/05/24 12:54:47;;;;;;;1.50;0.77;;;;;;;19.24;41.58;98198.19;4912857;29;20083;-73
2021/05/24 12:57:15;;;;;;;;;;;;;;;19.35;41.84;98197.56;4918645;29;20069;-71
2021/05/24 12:59:45;;;;;;;1.65;0.75;;;;;;;19.59;42.30;98198.63;4918191;29;20253;-71
2021/05/24 13:02:10;;;;;;;1.27;0.98;;;;;;;19.00;43.61;98197.94;4901428;29;20020;-71
2021/05/24 13:04:36;;;;;;;2.63;0.90;;;;;;;19.13;44.47;98191.00;4917227;29;20115;-71
2021/05/24 13:07:02;;;;;;;1.38;0.90;;;;;;;19.35;42.23;98182.63;4918039;29;20389;-71
2021/05/24 13:09:30;;;;;;;1.55;0.70;;;;;;;19.66;38.53;98184.16;4918005;29;20027;-71
2021/05/24 13:12:04;;;;;;;1.65;1.02;;;;;;;19.72;40.94;98188.19;4914103;29;20024;-71
2021/05/24 13:14:35;;;;;;;1.45;0.90;;;;;;;19.72;41.58;98183.75;4917922;29;20016;-71
2021/05/24 13:20:12;;;;;;;4.13;0.80;;;;;;;20.40;39.62;98174.88;4917860;29;20020;-73
2021/05/24 13:26:08;;;;;;;2.38;0.82;;;;;;;20.34;37.82;98182.34;4913261;29;20088;-75
2021/05/24 13:28:53;;;;;;;2.95;0.80;;;;;;;20.77;38.72;98178.50;4912238;29;20483;-73
2021/05/24 13:31:27;;;;;;;1.92;0.82;;;;;;;20.29;37.38;98183.50;4914166;29;20119;-71
2021/05/24 13:33:56;;;;;;;2.20;1.13;;;;;;;20.22;37.75;98187.50;4917740;29;20191;-75
2021/05/24 13:36:27;;;;;;;3.55;0.90;;;;;;;20.50;38.74;98180.41;4917467;29;20031;-71
2021/05/24 13:39:10;;;;;;;0.70;0.70;;;;;;;20.22;38.29;98182.25;4917847;29;20490;-73
2021/05/24 13:41:37;;;;;;;3.47;0.77;;;;;;;20.38;38.75;98175.94;4915662;29;20382;-73
2021/05/24 13:44:09;;;;;;;1.20;0.70;;;;;;;20.76;38.76;98171.56;4913942;29;20024;-74
2021/05/24 13:46:35;;;;;;;1.00;0.90;;;;;;;20.68;37.87;98173.03;4917183;29;20976;-73
2021/05/24 13:49:00;;;;;;;0.93;0.77;;;;;;;20.76;38.89;98166.31;4917533;29;20032;-74
2021/05/24 13:51:27;;;;;;;2.95;2.03;;;;;;;20.81;38.46;98168.63;4917367;29;20027;-71
2021/05/24 13:53:53;;;;;;;1.80;0.80;;;;;;;20.62;37.12;98153.25;4912022;29;20027;-75
2021/05/24 13:56:19;;;;;;;2.63;2.05;;;;;;;20.65;39.08;98147.78;4917333;29;20030;-71
2021/05/24 13:58:44;;;;;;;1.08;0.98;;;;;;;20.69;36.89;98149.22;4917382;29;20027;-73
2021/05/24 14:01:11;;;;;;;2.55;1.27;;;;;;;20.42;37.75;98145.84;4917448;29;20072;-71
2021/05/24 14:03:37;;;;;;;1.25;0.90;;;;;;;20.63;36.85;98141.75;4916245;29;20110;-71
2021/05/24 14:06:03;;;;;;;3.08;0.82;;;;;;;20.56;37.75;98143.16;4917004;29;20111;-74
2021/05/24 14:08:28;;;;;;;1.27;0.80;;;;;;;20.42;38.90;98140.59;4917022;29;20102;-70
2021/05/24 14:10:53;;;;;;;1.98;0.63;;;;;;;20.29;39.57;98135.31;4917114;29;20024;-71
2021/05/24 14:13:20;;;;;;;1.60;0.95;;;;;;;20.29;40.48;98141.41;4917158;29;20020;-75
2021/05/24 14:15:46;;;;;;;2.97;0.70;;;;;;;19.84;38.65;98144.50;4916704;29;20024;-75
2021/05/24 14:18:12;;;;;;;1.73;0.80;;;;;;;19.94;39.10;98148.19;4916915;29;20027;-75
2021/05/24 14:20:37;;;;;;;4.20;1.00;;;;;;;19.70;39.54;98148.84;4893203;29;20025;-74
2021/05/24 14:23:03;;;;;;;2.38;1.02;;;;;;;19.80;38.90;98150.88;4912939;29;20035;-71
2021/05/24 14:25:28;;;;;;;2.22;1.70;;;;;;;19.79;39.76;98141.31;4910621;29;20029;-75
2021/05/24 14:27:53;;;;;;;3.63;1.30;;;;;;;19.64;39.51;98141.38;4916712;29;20024;-71
2021/05/24 14:30:24;;;;;;;5.30;1.38;;;;;;;19.67;40.79;98138.53;4916070;29;20098;-71
2021/05/24 14:32:52;;;;;;;2.13;1.13;;;;;;;19.75;38.90;98141.50;4911331;29;20020;-71
2021/05/24 14:35:17;;;;;;;2.70;0.70;;;;;;;19.85;39.54;98146.16;4916622;29;20024;-70
2021/05/24 14:37:42;;;;;;;1.42;1.33;;;;;;;19.91;39.36;98143.13;4915060;29;20031;-75
2021/05/24 14:40:09;;;;;;;1.50;1.27;;;;;;;20.33;39.57;98146.47;4910398;29;20016;-74
2021/05/24 14:42:34;;;;;;;1.73;1.00;;;;;;;20.48;38.49;98150.72;4913231;29;20024;-71
2021/05/24 14:44:59;;;;;;;0.95;0.85;;;;;;;20.46;38.72;98147.31;4915843;29;20021;-71
2021/05/24 14:47:25;;;;;;;2.75;0.80;;;;;;;20.17;36.32;98141.41;4916195;29;20476;-74
2021/05/24 14:49:54;;;;;;;1.27;0.90;;;;;;;20.39;37.23;98146.03;4908953;29;20036;-71
2021/05/24 14:52:19;;;;;;;2.63;0.95;;;;;;;20.05;37.62;98148.31;4916441;29;20027;-73
2021/05/24 14:54:46;;;;;;;9.35;5.38;;;;;;;19.84;38.16;98149.75;4910881;29;20024;-75
2021/05/24 14:57:14;;;;;;;11.20;6.65;;;;;;;19.62;37.97;98151.13;4915893;29;20066;-75
2021/05/24 14:59:39;;;;;;;1.73;1.00;;;;;;;19.26;39.67;98149.91;4914987;29;20509;-75
2021/05/24 15:02:05;;;;;;;1.20;0.82;;;;;;;19.38;39.12;98147.44;4908771;29;20024;-75
2021/05/24 15:04:30;;;;;;;1.88;0.90;;;;;;;19.42;39.41;98144.50;4911232;29;20035;-75
2021/05/24 15:06:56;;;;;;;1.25;1.00;;;;;;;19.76;39.48;98137.94;4912052;29;20371;-71
2021/05/24 15:09:21;;;;;;;1.30;0.90;;;;;;;19.70;39.48;98138.34;4914671;29;20031;-71
2021/05/24 15:11:46;;;;;;;1.40;1.00;;;;;;;19.73;37.65;98134.69;4914476;29;20027;-71
2021/05/24 15:14:12;;;;;;;7.97;5.45;;;;;;;19.82;38.09;98127.97;4914613;29;20027;-71
2021/05/24 15:16:37;;;;;;;2.28;1.85;;;;;;;19.83;38.73;98127.03;4915788;29;20486;-71
2021/05/24 15:19:04;;;;;;;2.65;1.27;;;;;;;19.72;37.96;98128.56;4916167;29;20095;-70
2021/05/24 15:21:30;;;;;;;1.98;0.90;;;;;;;19.62;37.89;98124.00;4915287;29;20024;-71
2021/05/24 15:23:55;;;;;;;3.45;1.13;;;;;;;19.73;38.70;98121.53;4916036;29;20536;-71
2021/05/24 15:26:21;;;;;;;3.13;1.67;;;;;;;19.75;37.78;98114.38;4914596;29;20038;-71
2021/05/24 15:28:46;;;;;;;1.85;1.00;;;;;;;19.50;38.79;98115.13;4915805;29;20027;-71
2021/05/24 15:31:11;;;;;;;1.25;1.10;;;;;;;19.44;37.71;98116.38;4915904;29;20024;-71
2021/05/24 15:33:37;;;;;;;3.17;0.70;;;;;;;19.09;37.52;98110.72;4915395;29;20497;-75
2021/05/24 15:36:03;;;;;;;2.22;1.10;;;;;;;19.04;39.01;98111.94;4915829;29;20119;-76
2021/05/24 15:38:30;;;;;;;1.20;1.00;;;;;;;19.04;39.48;98110.16;4908916;29;20031;-75
2021/05/24 15:40:58;;;;;;;1.40;1.30;;;;;;;19.05;39.29;98109.25;4914298;29;20091;-75
2021/05/24 15:43:23;;;;;;;9.85;7.70;;;;;;;19.07;40.37;98102.09;4915774;29;20052;-75
2021/05/24 15:45:48;;;;;;;5.40;1.90;;;;;;;19.06;40.54;98110.94;4915612;29;20075;-70
2021/05/24 15:48:14;;;;;;;1.23;1.08;;;;;;;19.00;40.84;98111.28;4910748;29;20021;-71
2021/05/24 15:50:39;;;;;;;1.77;1.40;;;;;;;19.08;40.75;98119.53;4915546;29;20024;-70
2021/05/24 15:53:05;;;;;;;3.30;1.15;;;;;;;19.07;40.57;98117.88;4911457;29;20016;-73
2021/05/24 15:55:32;;;;;;;1.48;0.82;;;;;;;19.03;39.42;98121.63;4915263;29;20080;-73
2021/05/24 15:57:58;;;;;;;2.67;1.40;;;;;;;19.03;40.23;98121.63;4910993;29;20044;-73
2021/05/24 16:00:23;;;;;;;1.00;0.93;;;;;;;19.14;40.30;98123.56;4912764;29;20028;-71
2021/05/24 16:02:49;;;;;;;4.07;1.38;;;;;;;19.06;40.34;98126.69;4913903;29;20020;-71